sensor_id;sensor_type;location;lat;lon;timestamp;pressure;altitude;pressure_sealevel;temperature;humidity
58967;BME280;44744;51.894;5.080;2022-12-22T00:00:27;100541.69;;;8.62;90.96
58967;BME280;44744;51.894;5.080;2022-12-22T00:01:27;100537.61;;;8.63;90.89
58967;BME280;44744;51.894;5.080;2022-12-22T00:02:30;100536.52;;;8.64;90.91
58967;BME280;44744;51.894;5.080;2022-12-22T00:03:30;100536.88;;;8.63;90.83
58967;BME280;44744;51.894;5.080;2022-12-22T00:04:30;100535.11;;;8.63;90.92
58967;BME280;44744;51.894;5.080;2022-12-22T00:05:30;100535.97;;;8.64;90.88
58967;BME280;44744;51.894;5.080;2022-12-22T00:06:30;100532.45;;;8.64;90.95
58967;BME280;44744;51.894;5.080;2022-12-22T00:07:30;100531.23;;;8.63;91.00
58967;BME280;44744;51.894;5.080;2022-12-22T00:08:31;100532.03;;;8.65;91.06
58967;BME280;44744;51.894;5.080;2022-12-22T00:09:31;100524.63;;;8.65;91.12
58967;BME280;44744;51.894;5.080;2022-12-22T00:10:31;100526.70;;;8.66;91.08
58967;BME280;44744;51.894;5.080;2022-12-22T00:11:31;100521.98;;;8.64;91.18
58967;BME280;44744;51.894;5.080;2022-12-22T00:12:31;100520.22;;;8.65;91.18
58967;BME280;44744;51.894;5.080;2022-12-22T00:13:32;100514.56;;;8.65;91.30
58967;BME280;44744;51.894;5.080;2022-12-22T00:14:35;100517.49;;;8.66;91.29
58967;BME280;44744;51.894;5.080;2022-12-22T00:15:35;100516.61;;;8.67;91.26
58967;BME280;44744;51.894;5.080;2022-12-22T00:16:38;100520.10;;;8.67;91.27
58967;BME280;44744;51.894;5.080;2022-12-22T00:17:45;100514.28;;;8.67;91.29
58967;BME280;44744;51.894;5.080;2022-12-22T00:18:46;100517.81;;;8.67;91.25
58967;BME280;44744;51.894;5.080;2022-12-22T00:19:49;100515.13;;;8.68;91.19
58967;BME280;44744;51.894;5.080;2022-12-22T00:20:53;100517.97;;;8.67;91.15
58967;BME280;44744;51.894;5.080;2022-12-22T00:21:56;100517.80;;;8.67;91.12
58967;BME280;44744;51.894;5.080;2022-12-22T00:22:57;100517.98;;;8.67;91.01
58967;BME280;44744;51.894;5.080;2022-12-22T00:24:00;100517.27;;;8.67;90.92
58967;BME280;44744;51.894;5.080;2022-12-22T00:25:00;100514.98;;;8.67;90.92
58967;BME280;44744;51.894;5.080;2022-12-22T00:26:02;100514.23;;;8.68;90.99
58967;BME280;44744;51.894;5.080;2022-12-22T00:27:02;100511.44;;;8.68;90.98
58967;BME280;44744;51.894;5.080;2022-12-22T00:28:12;100509.17;;;8.67;91.00
58967;BME280;44744;51.894;5.080;2022-12-22T00:29:13;100514.75;;;8.69;91.00
58967;BME280;44744;51.894;5.080;2022-12-22T00:30:14;100508.90;;;8.69;91.17
58967;BME280;44744;51.894;5.080;2022-12-22T00:31:15;100506.73;;;8.70;91.09
58967;BME280;44744;51.894;5.080;2022-12-22T00:32:26;100504.24;;;8.70;91.08
58967;BME280;44744;51.894;5.080;2022-12-22T00:33:30;100499.86;;;8.70;91.01
58967;BME280;44744;51.894;5.080;2022-12-22T00:34:34;100501.45;;;8.70;91.08
58967;BME280;44744;51.894;5.080;2022-12-22T00:35:37;100495.08;;;8.70;91.20
58967;BME280;44744;51.894;5.080;2022-12-22T00:36:37;100492.75;;;8.71;91.14
58967;BME280;44744;51.894;5.080;2022-12-22T00:37:40;100491.02;;;8.70;91.13
58967;BME280;44744;51.894;5.080;2022-12-22T00:38:40;100491.05;;;8.70;91.18
58967;BME280;44744;51.894;5.080;2022-12-22T00:39:46;100491.05;;;8.70;91.34
58967;BME280;44744;51.894;5.080;2022-12-22T00:40:56;100491.00;;;8.71;91.36
58967;BME280;44744;51.894;5.080;2022-12-22T00:41:56;100486.02;;;8.71;91.46
58967;BME280;44744;51.894;5.080;2022-12-22T00:42:56;100481.79;;;8.72;91.34
58967;BME280;44744;51.894;5.080;2022-12-22T00:43:56;100481.08;;;8.72;91.32
58967;BME280;44744;51.894;5.080;2022-12-22T00:44:56;100481.83;;;8.70;91.21
58967;BME280;44744;51.894;5.080;2022-12-22T00:45:57;100481.20;;;8.69;91.24
58967;BME280;44744;51.894;5.080;2022-12-22T00:46:58;100482.23;;;8.70;91.20
58967;BME280;44744;51.894;5.080;2022-12-22T00:47:59;100483.45;;;8.70;91.22
58967;BME280;44744;51.894;5.080;2022-12-22T00:48:59;100481.64;;;8.71;91.26
58967;BME280;44744;51.894;5.080;2022-12-22T00:49:59;100480.34;;;8.73;91.13
58967;BME280;44744;51.894;5.080;2022-12-22T00:51:06;100477.35;;;8.72;91.08
58967;BME280;44744;51.894;5.080;2022-12-22T00:52:06;100481.74;;;8.73;91.03
58967;BME280;44744;51.894;5.080;2022-12-22T00:53:07;100479.46;;;8.72;91.02
58967;BME280;44744;51.894;5.080;2022-12-22T00:54:08;100479.10;;;8.73;91.04
58967;BME280;44744;51.894;5.080;2022-12-22T00:55:13;100481.16;;;8.74;91.12
58967;BME280;44744;51.894;5.080;2022-12-22T00:56:21;100476.86;;;8.75;91.15
58967;BME280;44744;51.894;5.080;2022-12-22T00:57:24;100476.88;;;8.75;90.99
58967;BME280;44744;51.894;5.080;2022-12-22T00:58:25;100478.88;;;8.73;91.07
58967;BME280;44744;51.894;5.080;2022-12-22T00:59:25;100472.05;;;8.76;91.36
58967;BME280;44744;51.894;5.080;2022-12-22T01:00:26;100472.83;;;8.78;91.33
58967;BME280;44744;51.894;5.080;2022-12-22T01:01:26;100473.42;;;8.80;91.41
58967;BME280;44744;51.894;5.080;2022-12-22T01:02:27;100467.48;;;8.82;91.37
58967;BME280;44744;51.894;5.080;2022-12-22T01:03:29;100465.87;;;8.83;91.35
58967;BME280;44744;51.894;5.080;2022-12-22T01:04:35;100462.30;;;8.83;91.28
58967;BME280;44744;51.894;5.080;2022-12-22T01:05:37;100461.95;;;8.84;91.36
58967;BME280;44744;51.894;5.080;2022-12-22T01:06:37;100456.06;;;8.84;91.39
58967;BME280;44744;51.894;5.080;2022-12-22T01:07:38;100459.44;;;8.84;91.43
58967;BME280;44744;51.894;5.080;2022-12-22T01:08:44;100456.60;;;8.84;91.37
58967;BME280;44744;51.894;5.080;2022-12-22T01:09:46;100459.30;;;8.83;91.31
58967;BME280;44744;51.894;5.080;2022-12-22T01:10:48;100459.47;;;8.83;91.28
58967;BME280;44744;51.894;5.080;2022-12-22T01:11:48;100460.27;;;8.85;91.31
58967;BME280;44744;51.894;5.080;2022-12-22T01:12:48;100459.22;;;8.85;91.16
58967;BME280;44744;51.894;5.080;2022-12-22T01:13:48;100455.36;;;8.84;91.09
58967;BME280;44744;51.894;5.080;2022-12-22T01:14:56;100455.58;;;8.84;90.94
58967;BME280;44744;51.894;5.080;2022-12-22T01:15:56;100453.13;;;8.83;91.01
58967;BME280;44744;51.894;5.080;2022-12-22T01:16:56;100451.14;;;8.84;91.08
58967;BME280;44744;51.894;5.080;2022-12-22T01:18:04;100451.83;;;8.85;90.88
58967;BME280;44744;51.894;5.080;2022-12-22T01:19:04;100450.09;;;8.84;91.04
58967;BME280;44744;51.894;5.080;2022-12-22T01:20:04;100450.44;;;8.84;91.04
58967;BME280;44744;51.894;5.080;2022-12-22T01:21:05;100449.52;;;8.85;91.10
58967;BME280;44744;51.894;5.080;2022-12-22T01:22:08;100444.58;;;8.85;91.17
58967;BME280;44744;51.894;5.080;2022-12-22T01:23:30;100447.83;;;8.87;91.15
58967;BME280;44744;51.894;5.080;2022-12-22T01:24:30;100446.46;;;8.89;91.30
58967;BME280;44744;51.894;5.080;2022-12-22T01:25:30;100445.86;;;8.91;91.24
58967;BME280;44744;51.894;5.080;2022-12-22T01:26:33;100447.21;;;8.92;91.20
58967;BME280;44744;51.894;5.080;2022-12-22T01:27:33;100446.96;;;8.93;91.36
58967;BME280;44744;51.894;5.080;2022-12-22T01:28:33;100447.23;;;8.95;91.37
58967;BME280;44744;51.894;5.080;2022-12-22T01:29:33;100445.08;;;8.96;91.36
58967;BME280;44744;51.894;5.080;2022-12-22T01:30:36;100443.98;;;8.96;91.24
58967;BME280;44744;51.894;5.080;2022-12-22T01:31:37;100446.00;;;8.95;91.10
58967;BME280;44744;51.894;5.080;2022-12-22T01:32:37;100439.23;;;8.93;91.11
58967;BME280;44744;51.894;5.080;2022-12-22T01:33:37;100434.15;;;8.92;91.12
58967;BME280;44744;51.894;5.080;2022-12-22T01:34:37;100433.13;;;8.92;91.07
58967;BME280;44744;51.894;5.080;2022-12-22T01:35:38;100432.45;;;8.91;91.16
58967;BME280;44744;51.894;5.080;2022-12-22T01:36:38;100433.01;;;8.90;91.06
58967;BME280;44744;51.894;5.080;2022-12-22T01:37:38;100435.36;;;8.90;90.89
58967;BME280;44744;51.894;5.080;2022-12-22T01:38:38;100437.73;;;8.88;90.88
58967;BME280;44744;51.894;5.080;2022-12-22T01:39:39;100441.07;;;8.88;90.97
58967;BME280;44744;51.894;5.080;2022-12-22T01:40:45;100443.30;;;8.90;90.96
58967;BME280;44744;51.894;5.080;2022-12-22T01:41:46;100448.19;;;8.90;91.01
58967;BME280;44744;51.894;5.080;2022-12-22T01:42:48;100449.18;;;8.92;91.11
58967;BME280;44744;51.894;5.080;2022-12-22T01:43:57;100448.38;;;8.94;91.08
58967;BME280;44744;51.894;5.080;2022-12-22T01:45:01;100445.98;;;8.95;91.19
58967;BME280;44744;51.894;5.080;2022-12-22T01:46:17;100441.77;;;8.98;91.24
58967;BME280;44744;51.894;5.080;2022-12-22T01:48:28;100436.65;;;9.01;91.22
58967;BME280;44744;51.894;5.080;2022-12-22T01:49:38;100436.21;;;9.03;91.20
58967;BME280;44744;51.894;5.080;2022-12-22T01:50:40;100431.07;;;9.03;91.07
58967;BME280;44744;51.894;5.080;2022-12-22T01:51:40;100427.35;;;9.03;91.08
58967;BME280;44744;51.894;5.080;2022-12-22T01:52:42;100418.92;;;9.03;91.16
58967;BME280;44744;51.894;5.080;2022-12-22T01:53:42;100422.92;;;9.04;91.20
58967;BME280;44744;51.894;5.080;2022-12-22T01:54:43;100419.99;;;9.06;91.25
58967;BME280;44744;51.894;5.080;2022-12-22T01:55:44;100417.16;;;9.06;91.19
58967;BME280;44744;51.894;5.080;2022-12-22T01:56:44;100420.66;;;9.07;91.31
58967;BME280;44744;51.894;5.080;2022-12-22T01:57:45;100419.89;;;9.08;91.19
58967;BME280;44744;51.894;5.080;2022-12-22T01:58:48;100422.20;;;9.08;91.18
58967;BME280;44744;51.894;5.080;2022-12-22T01:59:50;100420.44;;;9.08;91.16
58967;BME280;44744;51.894;5.080;2022-12-22T02:00:50;100423.44;;;9.07;91.00
58967;BME280;44744;51.894;5.080;2022-12-22T02:01:50;100419.77;;;9.07;90.97
58967;BME280;44744;51.894;5.080;2022-12-22T02:02:51;100419.40;;;9.07;91.00
58967;BME280;44744;51.894;5.080;2022-12-22T02:03:51;100414.48;;;9.07;90.86
58967;BME280;44744;51.894;5.080;2022-12-22T02:04:51;100415.77;;;9.06;90.85
58967;BME280;44744;51.894;5.080;2022-12-22T02:07:15;100416.77;;;9.07;90.84
58967;BME280;44744;51.894;5.080;2022-12-22T02:08:29;100415.54;;;9.07;90.82
58967;BME280;44744;51.894;5.080;2022-12-22T02:12:01;100411.61;;;9.11;91.15
58967;BME280;44744;51.894;5.080;2022-12-22T02:13:07;100412.02;;;9.13;90.98
58967;BME280;44744;51.894;5.080;2022-12-22T02:14:15;100408.04;;;9.14;91.10
58967;BME280;44744;51.894;5.080;2022-12-22T02:15:22;100406.44;;;9.15;91.10
58967;BME280;44744;51.894;5.080;2022-12-22T02:16:49;100408.38;;;9.15;91.00
58967;BME280;44744;51.894;5.080;2022-12-22T02:17:58;100409.05;;;9.16;91.09
58967;BME280;44744;51.894;5.080;2022-12-22T02:21:24;100407.41;;;9.16;91.10
58967;BME280;44744;51.894;5.080;2022-12-22T02:24:49;100404.61;;;9.13;90.67
58967;BME280;44744;51.894;5.080;2022-12-22T02:25:54;100402.94;;;9.11;90.57
58967;BME280;44744;51.894;5.080;2022-12-22T02:28:26;100393.85;;;9.06;90.53
58967;BME280;44744;51.894;5.080;2022-12-22T02:30:50;100395.17;;;9.05;90.69
58967;BME280;44744;51.894;5.080;2022-12-22T02:31:56;100392.33;;;9.05;90.62
58967;BME280;44744;51.894;5.080;2022-12-22T02:32:56;100395.48;;;9.06;90.74
58967;BME280;44744;51.894;5.080;2022-12-22T02:34:11;100394.80;;;9.05;90.64
58967;BME280;44744;51.894;5.080;2022-12-22T02:35:12;100394.48;;;9.04;90.51
58967;BME280;44744;51.894;5.080;2022-12-22T02:36:38;100391.36;;;9.04;90.52
58967;BME280;44744;51.894;5.080;2022-12-22T02:37:54;100388.98;;;9.05;90.68
58967;BME280;44744;51.894;5.080;2022-12-22T02:39:19;100389.53;;;9.08;90.86
58967;BME280;44744;51.894;5.080;2022-12-22T02:48:15;100384.14;;;9.16;90.93
58967;BME280;44744;51.894;5.080;2022-12-22T02:52:16;100374.65;;;9.16;90.81
58967;BME280;44744;51.894;5.080;2022-12-22T02:53:18;100373.54;;;9.16;90.72
58967;BME280;44744;51.894;5.080;2022-12-22T02:54:25;100374.92;;;9.17;90.82
58967;BME280;44744;51.894;5.080;2022-12-22T02:55:27;100371.78;;;9.16;90.61
58967;BME280;44744;51.894;5.080;2022-12-22T02:56:28;100368.87;;;9.15;90.56
58967;BME280;44744;51.894;5.080;2022-12-22T02:57:28;100367.69;;;9.14;90.45
58967;BME280;44744;51.894;5.080;2022-12-22T02:58:29;100365.33;;;9.12;90.43
58967;BME280;44744;51.894;5.080;2022-12-22T02:59:34;100366.79;;;9.11;90.51
58967;BME280;44744;51.894;5.080;2022-12-22T03:00:46;100364.48;;;9.12;90.62
58967;BME280;44744;51.894;5.080;2022-12-22T03:01:57;100361.64;;;9.12;90.69
58967;BME280;44744;51.894;5.080;2022-12-22T03:02:57;100361.51;;;9.14;90.80
58967;BME280;44744;51.894;5.080;2022-12-22T03:04:00;100360.04;;;9.15;90.67
58967;BME280;44744;51.894;5.080;2022-12-22T03:06:23;100359.23;;;9.17;90.81
58967;BME280;44744;51.894;5.080;2022-12-22T03:07:26;100355.80;;;9.18;90.77
58967;BME280;44744;51.894;5.080;2022-12-22T03:08:50;100355.92;;;9.19;90.76
58967;BME280;44744;51.894;5.080;2022-12-22T03:09:55;100353.85;;;9.18;90.68
58967;BME280;44744;51.894;5.080;2022-12-22T03:10:57;100347.84;;;9.18;90.91
58967;BME280;44744;51.894;5.080;2022-12-22T03:11:57;100347.42;;;9.20;90.98
58967;BME280;44744;51.894;5.080;2022-12-22T03:15:54;100343.40;;;9.19;90.83
58967;BME280;44744;51.894;5.080;2022-12-22T03:17:00;100338.83;;;9.18;90.74
58967;BME280;44744;51.894;5.080;2022-12-22T03:18:03;100335.78;;;9.17;90.52
58967;BME280;44744;51.894;5.080;2022-12-22T03:19:04;100335.52;;;9.14;90.54
58967;BME280;44744;51.894;5.080;2022-12-22T03:20:04;100338.29;;;9.13;90.37
58967;BME280;44744;51.894;5.080;2022-12-22T03:21:04;100330.98;;;9.11;90.50
58967;BME280;44744;51.894;5.080;2022-12-22T03:23:34;100328.54;;;9.11;90.68
58967;BME280;44744;51.894;5.080;2022-12-22T03:24:36;100330.10;;;9.11;90.71
58967;BME280;44744;51.894;5.080;2022-12-22T03:25:39;100327.61;;;9.12;90.68
58967;BME280;44744;51.894;5.080;2022-12-22T03:26:39;100326.77;;;9.11;90.63
58967;BME280;44744;51.894;5.080;2022-12-22T03:29:07;100324.90;;;9.09;90.46
58967;BME280;44744;51.894;5.080;2022-12-22T03:30:10;100324.00;;;9.07;90.38
58967;BME280;44744;51.894;5.080;2022-12-22T03:31:13;100322.23;;;9.07;90.40
58967;BME280;44744;51.894;5.080;2022-12-22T03:32:20;100320.89;;;9.05;90.48
58967;BME280;44744;51.894;5.080;2022-12-22T03:33:21;100322.14;;;9.05;90.45
58967;BME280;44744;51.894;5.080;2022-12-22T03:34:24;100321.80;;;9.05;90.45
58967;BME280;44744;51.894;5.080;2022-12-22T03:35:27;100322.09;;;9.03;90.28
58967;BME280;44744;51.894;5.080;2022-12-22T03:36:27;100323.57;;;9.02;90.37
58967;BME280;44744;51.894;5.080;2022-12-22T03:37:27;100325.85;;;9.02;90.58
58967;BME280;44744;51.894;5.080;2022-12-22T03:38:30;100324.17;;;9.03;90.63
58967;BME280;44744;51.894;5.080;2022-12-22T03:39:34;100322.89;;;9.04;90.63
58967;BME280;44744;51.894;5.080;2022-12-22T03:40:34;100321.98;;;9.05;90.73
58967;BME280;44744;51.894;5.080;2022-12-22T03:41:34;100317.38;;;9.05;90.82
58967;BME280;44744;51.894;5.080;2022-12-22T03:42:35;100318.52;;;9.07;90.77
58967;BME280;44744;51.894;5.080;2022-12-22T03:43:35;100314.83;;;9.07;90.82
58967;BME280;44744;51.894;5.080;2022-12-22T03:46:08;100313.09;;;9.06;90.82
58967;BME280;44744;51.894;5.080;2022-12-22T03:47:06;100310.99;;;9.06;90.74
58967;BME280;44744;51.894;5.080;2022-12-22T03:48:09;100314.02;;;9.05;90.56
58967;BME280;44744;51.894;5.080;2022-12-22T03:49:12;100314.23;;;9.04;90.60
58967;BME280;44744;51.894;5.080;2022-12-22T03:50:39;100309.08;;;9.05;90.58
58967;BME280;44744;51.894;5.080;2022-12-22T03:52:57;100315.63;;;9.08;90.59
58967;BME280;44744;51.894;5.080;2022-12-22T03:53:57;100313.45;;;9.09;90.61
58967;BME280;44744;51.894;5.080;2022-12-22T03:55:09;100311.60;;;9.11;90.62
58967;BME280;44744;51.894;5.080;2022-12-22T03:56:15;100311.32;;;9.13;90.58
58967;BME280;44744;51.894;5.080;2022-12-22T03:57:36;100309.95;;;9.14;90.79
58967;BME280;44744;51.894;5.080;2022-12-22T03:58:59;100314.09;;;9.17;90.67
58967;BME280;44744;51.894;5.080;2022-12-22T04:00:02;100313.74;;;9.19;90.78
58967;BME280;44744;51.894;5.080;2022-12-22T04:01:06;100313.72;;;9.20;90.83
58967;BME280;44744;51.894;5.080;2022-12-22T04:02:08;100315.21;;;9.21;90.62
58967;BME280;44744;51.894;5.080;2022-12-22T04:03:22;100316.42;;;9.22;90.61
58967;BME280;44744;51.894;5.080;2022-12-22T04:05:59;100319.36;;;9.20;90.58
58967;BME280;44744;51.894;5.080;2022-12-22T04:07:03;100321.86;;;9.19;90.50
58967;BME280;44744;51.894;5.080;2022-12-22T04:08:03;100325.01;;;9.20;90.65
58967;BME280;44744;51.894;5.080;2022-12-22T04:09:06;100323.45;;;9.19;90.52
58967;BME280;44744;51.894;5.080;2022-12-22T04:11:26;100322.21;;;9.19;90.41
58967;BME280;44744;51.894;5.080;2022-12-22T04:13:39;100324.23;;;9.18;90.28
58967;BME280;44744;51.894;5.080;2022-12-22T04:14:40;100324.81;;;9.17;90.24
58967;BME280;44744;51.894;5.080;2022-12-22T04:15:43;100323.60;;;9.17;90.34
58967;BME280;44744;51.894;5.080;2022-12-22T04:16:43;100321.35;;;9.16;90.17
58967;BME280;44744;51.894;5.080;2022-12-22T04:17:44;100323.69;;;9.16;90.24
58967;BME280;44744;51.894;5.080;2022-12-22T04:20:10;100323.98;;;9.13;90.26
58967;BME280;44744;51.894;5.080;2022-12-22T04:21:19;100326.21;;;9.14;90.24
58967;BME280;44744;51.894;5.080;2022-12-22T04:30:34;100337.52;;;9.17;90.29
58967;BME280;44744;51.894;5.080;2022-12-22T04:31:48;100336.23;;;9.18;90.42
58967;BME280;44744;51.894;5.080;2022-12-22T04:32:48;100340.98;;;9.18;90.47
58967;BME280;44744;51.894;5.080;2022-12-22T04:33:49;100342.02;;;9.18;90.33
58967;BME280;44744;51.894;5.080;2022-12-22T04:34:51;100346.95;;;9.15;90.14
58967;BME280;44744;51.894;5.080;2022-12-22T04:35:52;100349.08;;;9.12;90.14
58967;BME280;44744;51.894;5.080;2022-12-22T04:36:52;100350.41;;;9.11;90.25
58967;BME280;44744;51.894;5.080;2022-12-22T04:37:52;100352.16;;;9.08;90.13
58967;BME280;44744;51.894;5.080;2022-12-22T04:38:52;100351.07;;;9.05;90.19
58967;BME280;44744;51.894;5.080;2022-12-22T04:39:52;100355.40;;;9.03;90.04
58967;BME280;44744;51.894;5.080;2022-12-22T04:40:52;100354.46;;;9.01;90.05
58967;BME280;44744;51.894;5.080;2022-12-22T04:41:52;100354.68;;;9.00;90.11
58967;BME280;44744;51.894;5.080;2022-12-22T04:42:53;100353.25;;;9.01;90.19
58967;BME280;44744;51.894;5.080;2022-12-22T04:45:28;100346.83;;;8.99;90.13
58967;BME280;44744;51.894;5.080;2022-12-22T04:46:28;100345.79;;;8.98;90.18
58967;BME280;44744;51.894;5.080;2022-12-22T04:47:29;100345.98;;;8.98;90.21
58967;BME280;44744;51.894;5.080;2022-12-22T04:50:01;100342.82;;;8.95;89.99
58967;BME280;44744;51.894;5.080;2022-12-22T04:51:02;100340.62;;;8.93;90.10
58967;BME280;44744;51.894;5.080;2022-12-22T04:52:02;100338.91;;;8.93;90.22
58967;BME280;44744;51.894;5.080;2022-12-22T04:53:02;100337.38;;;8.91;90.21
58967;BME280;44744;51.894;5.080;2022-12-22T04:54:08;100340.85;;;8.93;90.36
58967;BME280;44744;51.894;5.080;2022-12-22T04:59:13;100339.57;;;8.96;90.64
58967;BME280;44744;51.894;5.080;2022-12-22T05:00:16;100341.45;;;8.97;90.54
58967;BME280;44744;51.894;5.080;2022-12-22T05:01:19;100338.94;;;8.98;90.53
58967;BME280;44744;51.894;5.080;2022-12-22T05:02:22;100338.23;;;8.98;90.41
58967;BME280;44744;51.894;5.080;2022-12-22T05:03:23;100339.99;;;8.98;90.48
58967;BME280;44744;51.894;5.080;2022-12-22T05:04:26;100342.32;;;8.98;90.47
58967;BME280;44744;51.894;5.080;2022-12-22T05:05:26;100337.75;;;8.98;90.56
58967;BME280;44744;51.894;5.080;2022-12-22T05:06:26;100337.80;;;8.97;90.40
58967;BME280;44744;51.894;5.080;2022-12-22T05:07:26;100338.13;;;8.94;90.37
58967;BME280;44744;51.894;5.080;2022-12-22T05:08:26;100337.91;;;8.91;90.32
58967;BME280;44744;51.894;5.080;2022-12-22T05:09:29;100340.14;;;8.89;90.40
58967;BME280;44744;51.894;5.080;2022-12-22T05:10:39;100337.77;;;8.87;90.42
58967;BME280;44744;51.894;5.080;2022-12-22T05:11:48;100339.48;;;8.85;90.36
58967;BME280;44744;51.894;5.080;2022-12-22T05:12:48;100342.92;;;8.83;90.46
58967;BME280;44744;51.894;5.080;2022-12-22T05:14:14;100343.55;;;8.82;90.36
58967;BME280;44744;51.894;5.080;2022-12-22T05:15:12;100339.39;;;8.80;90.28
58967;BME280;44744;51.894;5.080;2022-12-22T05:16:13;100344.55;;;8.80;90.25
58967;BME280;44744;51.894;5.080;2022-12-22T05:17:13;100343.81;;;8.77;90.14
58967;BME280;44744;51.894;5.080;2022-12-22T05:18:14;100345.11;;;8.76;90.26
58967;BME280;44744;51.894;5.080;2022-12-22T05:19:14;100343.92;;;8.75;90.29
58967;BME280;44744;51.894;5.080;2022-12-22T05:20:14;100344.48;;;8.75;90.32
58967;BME280;44744;51.894;5.080;2022-12-22T05:21:21;100343.64;;;8.74;90.29
58967;BME280;44744;51.894;5.080;2022-12-22T05:22:30;100347.37;;;8.73;90.35
58967;BME280;44744;51.894;5.080;2022-12-22T05:23:31;100347.05;;;8.73;90.36
58967;BME280;44744;51.894;5.080;2022-12-22T05:24:40;100349.41;;;8.71;90.43
58967;BME280;44744;51.894;5.080;2022-12-22T05:25:40;100346.45;;;8.71;90.49
58967;BME280;44744;51.894;5.080;2022-12-22T05:29:37;100354.79;;;8.70;90.68
58967;BME280;44744;51.894;5.080;2022-12-22T05:30:39;100356.29;;;8.68;90.68
58967;BME280;44744;51.894;5.080;2022-12-22T05:31:39;100359.96;;;8.69;90.58
58967;BME280;44744;51.894;5.080;2022-12-22T05:32:40;100362.31;;;8.67;90.66
58967;BME280;44744;51.894;5.080;2022-12-22T05:33:42;100369.73;;;8.67;90.70
58967;BME280;44744;51.894;5.080;2022-12-22T05:34:43;100368.16;;;8.67;90.72
58967;BME280;44744;51.894;5.080;2022-12-22T05:37:09;100370.16;;;8.66;90.68
58967;BME280;44744;51.894;5.080;2022-12-22T05:38:09;100372.88;;;8.65;90.66
58967;BME280;44744;51.894;5.080;2022-12-22T05:39:09;100372.58;;;8.63;90.73
58967;BME280;44744;51.894;5.080;2022-12-22T05:40:09;100375.45;;;8.63;90.77
58967;BME280;44744;51.894;5.080;2022-12-22T05:41:10;100378.48;;;8.62;90.77
58967;BME280;44744;51.894;5.080;2022-12-22T05:42:10;100378.16;;;8.61;90.77
58967;BME280;44744;51.894;5.080;2022-12-22T05:43:10;100385.30;;;8.60;90.78
58967;BME280;44744;51.894;5.080;2022-12-22T05:44:10;100387.10;;;8.59;90.86
58967;BME280;44744;51.894;5.080;2022-12-22T05:45:17;100392.93;;;8.59;90.91
58967;BME280;44744;51.894;5.080;2022-12-22T05:46:20;100393.04;;;8.57;90.89
58967;BME280;44744;51.894;5.080;2022-12-22T05:47:23;100397.66;;;8.56;90.89
58967;BME280;44744;51.894;5.080;2022-12-22T05:48:30;100397.22;;;8.54;90.95
58967;BME280;44744;51.894;5.080;2022-12-22T05:49:38;100401.01;;;8.53;91.02
58967;BME280;44744;51.894;5.080;2022-12-22T05:50:41;100402.30;;;8.51;91.09
58967;BME280;44744;51.894;5.080;2022-12-22T05:51:41;100404.87;;;8.50;91.05
58967;BME280;44744;51.894;5.080;2022-12-22T05:52:42;100403.17;;;8.48;91.06
58967;BME280;44744;51.894;5.080;2022-12-22T05:53:42;100405.85;;;8.47;91.10
58967;BME280;44744;51.894;5.080;2022-12-22T05:54:42;100411.17;;;8.47;91.26
58967;BME280;44744;51.894;5.080;2022-12-22T05:55:59;100410.72;;;8.46;91.46
58967;BME280;44744;51.894;5.080;2022-12-22T05:58:23;100413.48;;;8.43;91.70
58967;BME280;44744;51.894;5.080;2022-12-22T05:59:24;100415.12;;;8.42;91.74
58967;BME280;44744;51.894;5.080;2022-12-22T06:00:30;100415.88;;;8.41;91.85
58967;BME280;44744;51.894;5.080;2022-12-22T06:01:30;100415.46;;;8.39;91.98
58967;BME280;44744;51.894;5.080;2022-12-22T06:02:33;100415.45;;;8.39;92.21
58967;BME280;44744;51.894;5.080;2022-12-22T06:03:33;100421.67;;;8.37;92.34
58967;BME280;44744;51.894;5.080;2022-12-22T06:04:34;100419.48;;;8.36;92.41
58967;BME280;44744;51.894;5.080;2022-12-22T06:05:34;100413.75;;;8.34;92.55
58967;BME280;44744;51.894;5.080;2022-12-22T06:06:34;100420.79;;;8.34;92.75
58967;BME280;44744;51.894;5.080;2022-12-22T06:07:40;100419.46;;;8.33;92.81
58967;BME280;44744;51.894;5.080;2022-12-22T06:08:40;100419.17;;;8.32;93.08
58967;BME280;44744;51.894;5.080;2022-12-22T06:09:41;100416.29;;;8.29;93.20
58967;BME280;44744;51.894;5.080;2022-12-22T06:10:41;100417.98;;;8.27;93.15
58967;BME280;44744;51.894;5.080;2022-12-22T06:11:41;100418.79;;;8.26;93.17
58967;BME280;44744;51.894;5.080;2022-12-22T06:12:41;100419.67;;;8.25;93.31
58967;BME280;44744;51.894;5.080;2022-12-22T06:13:45;100420.75;;;8.25;93.35
58967;BME280;44744;51.894;5.080;2022-12-22T06:14:55;100421.51;;;8.24;93.48
58967;BME280;44744;51.894;5.080;2022-12-22T06:15:58;100421.04;;;8.23;93.51
58967;BME280;44744;51.894;5.080;2022-12-22T06:16:58;100416.50;;;8.23;93.51
58967;BME280;44744;51.894;5.080;2022-12-22T06:17:58;100414.05;;;8.22;93.46
58967;BME280;44744;51.894;5.080;2022-12-22T06:18:59;100413.33;;;8.22;93.59
58967;BME280;44744;51.894;5.080;2022-12-22T06:19:59;100413.06;;;8.20;93.61
58967;BME280;44744;51.894;5.080;2022-12-22T06:23:42;100412.23;;;8.19;93.52
58967;BME280;44744;51.894;5.080;2022-12-22T06:24:42;100409.25;;;8.19;93.50
58967;BME280;44744;51.894;5.080;2022-12-22T06:25:42;100409.61;;;8.19;93.46
58967;BME280;44744;51.894;5.080;2022-12-22T06:27:00;100405.22;;;8.19;93.43
58967;BME280;44744;51.894;5.080;2022-12-22T06:28:00;100410.55;;;8.18;93.44
58967;BME280;44744;51.894;5.080;2022-12-22T06:29:00;100413.70;;;8.18;93.52
58967;BME280;44744;51.894;5.080;2022-12-22T06:30:09;100416.48;;;8.18;93.36
58967;BME280;44744;51.894;5.080;2022-12-22T06:31:09;100419.83;;;8.19;93.38
58967;BME280;44744;51.894;5.080;2022-12-22T06:32:10;100420.36;;;8.18;93.32
58967;BME280;44744;51.894;5.080;2022-12-22T06:33:10;100419.86;;;8.18;93.30
58967;BME280;44744;51.894;5.080;2022-12-22T06:34:10;100418.83;;;8.18;93.26
58967;BME280;44744;51.894;5.080;2022-12-22T06:35:16;100421.14;;;8.17;93.30
58967;BME280;44744;51.894;5.080;2022-12-22T06:36:16;100428.57;;;8.17;93.25